createdAt,value
2023-05-13T00:00:10.895Z,11.93
2023-05-13T00:02:40.966Z,13.37
2023-05-13T00:05:10.218Z,12.17
2023-05-13T00:07:38.728Z,11.53
2023-05-13T00:10:08.273Z,12.23
2023-05-13T00:12:37.296Z,12.47
2023-05-13T00:15:06.780Z,12.53
2023-05-13T00:17:35.262Z,12.43
2023-05-13T00:20:06.725Z,13.63
2023-05-13T00:22:35.100Z,12.53
2023-05-13T00:25:04.334Z,12.87
2023-05-13T00:27:33.798Z,13.10
2023-05-13T00:30:02.343Z,13.03
2023-05-13T00:32:30.790Z,12.87
2023-05-13T00:34:59.346Z,14.70
2023-05-13T00:37:29.166Z,14.43
2023-05-13T00:39:57.819Z,11.90
2023-05-13T00:42:26.853Z,14.40
2023-05-13T00:44:55.251Z,12.40
2023-05-13T00:47:24.044Z,11.83
2023-05-13T00:49:53.324Z,11.80
2023-05-13T00:52:21.864Z,12.57
2023-05-13T00:54:51.724Z,12.30
2023-05-13T00:57:20.082Z,12.20
2023-05-13T00:59:48.453Z,12.60
2023-05-13T01:02:25.985Z,12.03
2023-05-13T01:05:02.175Z,12.60
2023-05-13T01:07:41.707Z,12.80
2023-05-13T01:10:22.067Z,13.27
2023-05-13T01:12:55.904Z,13.80
2023-05-13T01:15:28.451Z,11.83
2023-05-13T01:18:07.661Z,13.50
2023-05-13T01:20:36.700Z,14.90
2023-05-13T01:23:06.759Z,14.83
2023-05-13T01:25:35.114Z,13.70
2023-05-13T01:28:03.602Z,12.30
2023-05-13T01:30:32.197Z,12.27
2023-05-13T01:33:01.778Z,12.03
2023-05-13T01:35:31.036Z,12.37
2023-05-13T01:38:00.818Z,12.80
2023-05-13T01:40:32.502Z,13.27
2023-05-13T01:43:06.211Z,13.63
2023-05-13T01:45:34.956Z,15.37
2023-05-13T01:48:03.436Z,14.10
2023-05-13T01:50:32.116Z,13.03
2023-05-13T01:53:00.542Z,15.07
2023-05-13T01:55:30.635Z,12.77
2023-05-13T01:57:58.992Z,13.80
2023-05-13T02:00:27.548Z,15.50
2023-05-13T02:02:56.035Z,14.60
2023-05-13T02:05:24.801Z,14.37
2023-05-13T02:07:53.257Z,14.57
2023-05-13T02:10:22.864Z,18.40
2023-05-13T02:12:53.124Z,17.10
2023-05-13T02:15:21.554Z,14.73
2023-05-13T02:17:50.123Z,16.73
2023-05-13T02:20:18.674Z,16.03
2023-05-13T02:22:47.308Z,17.33
2023-05-13T02:25:15.917Z,17.23
2023-05-13T02:27:44.354Z,17.33
2023-05-13T02:30:14.693Z,16.83
2023-05-13T02:32:44.054Z,19.33
2023-05-13T02:35:12.554Z,18.27
2023-05-13T02:37:41.087Z,18.10
2023-05-13T02:40:11.097Z,16.27
2023-05-13T02:42:39.534Z,17.20
2023-05-13T02:45:09.953Z,18.23
2023-05-13T02:47:40.589Z,17.47
2023-05-13T02:50:10.260Z,17.33
2023-05-13T02:52:39.252Z,17.80
2023-05-13T02:55:10.037Z,17.57
2023-05-13T02:57:38.663Z,18.10
2023-05-13T03:00:09.242Z,17.67
2023-05-13T03:02:39.187Z,18.00
2023-05-13T03:05:08.897Z,18.63
2023-05-13T03:07:37.294Z,17.90
2023-05-13T03:10:06.907Z,17.90
2023-05-13T03:12:35.296Z,18.23
2023-05-13T03:15:04.542Z,20.47
2023-05-13T03:17:33.639Z,18.37
2023-05-13T03:20:03.641Z,20.83
2023-05-13T03:22:31.966Z,19.50
2023-05-13T03:25:00.424Z,19.57
2023-05-13T03:27:28.812Z,21.03
2023-05-13T03:29:57.325Z,19.03
2023-05-13T03:32:30.695Z,20.47
2023-05-13T03:35:00.945Z,21.00
2023-05-13T03:37:30.745Z,18.83
2023-05-13T03:39:59.226Z,19.73
2023-05-13T03:42:27.869Z,19.43
2023-05-13T03:44:57.194Z,20.50
2023-05-13T03:47:26.415Z,22.87
2023-05-13T03:49:55.357Z,22.43
2023-05-13T03:52:24.077Z,22.23
2023-05-13T03:54:56.182Z,21.83
2023-05-13T03:57:25.019Z,22.17
2023-05-13T03:59:53.406Z,23.30
2023-05-13T04:02:24.361Z,22.10
2023-05-13T04:04:53.628Z,23.20
2023-05-13T04:07:22.770Z,22.00
2023-05-13T04:09:53.059Z,21.33
2023-05-13T04:12:22.591Z,24.60
2023-05-13T04:14:51.437Z,22.27
2023-05-13T04:17:20.699Z,23.63
2023-05-13T04:19:49.888Z,23.30
2023-05-13T04:22:18.645Z,21.57
2023-05-13T04:24:47.236Z,22.73
2023-05-13T04:27:17.028Z,20.87
2023-05-13T04:29:45.492Z,22.67
2023-05-13T04:32:16.192Z,22.30
2023-05-13T04:34:44.630Z,23.63
2023-05-13T04:37:12.964Z,20.80
2023-05-13T04:39:41.334Z,23.40
2023-05-13T04:42:09.686Z,19.10
2023-05-13T04:44:39.531Z,18.93
2023-05-13T04:47:08.555Z,21.07
2023-05-13T04:49:36.995Z,21.27
2023-05-13T04:52:07.085Z,19.60
2023-05-13T04:54:37.212Z,20.10
2023-05-13T04:57:06.737Z,19.27
2023-05-13T04:59:35.481Z,20.37
2023-05-13T05:02:05.684Z,19.37
2023-05-13T05:04:34.350Z,18.53
2023-05-13T05:07:02.803Z,19.30
2023-05-13T05:09:31.749Z,21.53
2023-05-13T05:12:00.248Z,18.17
2023-05-13T05:14:28.530Z,18.77
2023-05-13T05:16:57.445Z,19.33
2023-05-13T05:19:28.121Z,17.00
2023-05-13T05:21:57.361Z,18.30
2023-05-13T05:24:26.833Z,18.70
2023-05-13T05:26:55.414Z,20.77
2023-05-13T05:29:25.148Z,18.47
2023-05-13T05:31:53.965Z,18.40
2023-05-13T05:34:23.450Z,19.07
2023-05-13T05:36:55.236Z,18.63
2023-05-13T05:39:23.612Z,17.40
2023-05-13T05:41:52.521Z,20.60
2023-05-13T05:44:21.337Z,17.60
2023-05-13T05:46:50.125Z,18.33
2023-05-13T05:49:18.566Z,16.83
2023-05-13T05:51:46.911Z,16.30
2023-05-13T05:54:16.632Z,16.47
2023-05-13T05:56:44.958Z,17.57
2023-05-13T05:59:13.458Z,19.23
2023-05-13T06:01:41.996Z,16.30
2023-05-13T06:04:10.438Z,15.17
2023-05-13T06:06:39.631Z,16.73
2023-05-13T06:09:08.847Z,18.23
2023-05-13T06:11:38.652Z,15.67
2023-05-13T06:14:07.720Z,18.70
2023-05-13T06:16:36.253Z,15.50
2023-05-13T06:19:05.013Z,16.63
2023-05-13T06:21:34.819Z,17.70
2023-05-13T06:24:04.314Z,15.20
2023-05-13T06:26:35.802Z,16.73
2023-05-13T06:29:05.650Z,15.57
2023-05-13T06:31:34.428Z,14.87
2023-05-13T06:34:03.497Z,15.50
2023-05-13T06:36:31.956Z,14.73
2023-05-13T06:39:02.116Z,14.47
2023-05-13T06:41:30.767Z,14.23
2023-05-13T06:43:59.421Z,15.03
2023-05-13T06:46:29.482Z,13.07
2023-05-13T06:48:58.314Z,12.87
2023-05-13T06:51:30.889Z,15.23
2023-05-13T06:53:59.654Z,10.67
2023-05-13T06:56:28.302Z,11.73
2023-05-13T06:58:58.319Z,14.60
2023-05-13T07:01:28.292Z,12.17
2023-05-13T07:03:57.207Z,11.50
2023-05-13T07:06:26.443Z,11.03
2023-05-13T07:08:55.092Z,10.83
2023-05-13T07:11:23.569Z,11.50
2023-05-13T07:13:52.451Z,11.53
2023-05-13T07:16:21.080Z,10.97
2023-05-13T07:18:51.436Z,11.93
2023-05-13T07:21:20.465Z,10.93
2023-05-13T07:23:48.991Z,10.27
2023-05-13T07:26:17.550Z,9.23
2023-05-13T07:28:46.020Z,10.40
2023-05-13T07:31:14.706Z,9.97
2023-05-13T07:33:43.966Z,10.40
2023-05-13T07:36:14.391Z,10.20
2023-05-13T07:38:44.340Z,9.17
2023-05-13T07:41:12.994Z,10.37
2023-05-13T07:43:41.616Z,9.70
2023-05-13T07:46:10.709Z,10.33
2023-05-13T07:48:39.502Z,10.17
2023-05-13T07:51:08.357Z,9.97
2023-05-13T07:53:38.347Z,12.70
2023-05-13T07:56:07.897Z,11.43
2023-05-13T07:58:37.359Z,9.47
2023-05-13T08:01:08.112Z,10.07
2023-05-13T08:03:37.204Z,9.80
2023-05-13T08:06:06.975Z,9.90
2023-05-13T08:08:36.253Z,10.17
2023-05-13T08:11:06.332Z,9.77
2023-05-13T08:13:35.009Z,8.60
2023-05-13T08:16:03.965Z,10.00
2023-05-13T08:18:32.618Z,10.20
2023-05-13T08:21:01.286Z,10.13
2023-05-13T08:23:43.415Z,11.77
2023-05-13T08:26:14.827Z,9.03
2023-05-13T08:28:43.256Z,9.53
2023-05-13T08:31:13.523Z,9.73
2023-05-13T08:33:43.257Z,10.90
2023-05-13T08:36:11.774Z,8.67
2023-05-13T08:38:40.287Z,9.53
2023-05-13T08:41:09.019Z,8.90
2023-05-13T08:43:40.305Z,11.30
2023-05-13T08:46:12.218Z,9.97
2023-05-13T08:48:42.552Z,8.77
2023-05-13T08:51:11.575Z,9.03
2023-05-13T08:53:41.706Z,11.10
2023-05-13T08:56:10.564Z,8.50
2023-05-13T08:58:46.203Z,7.83
2023-05-13T09:01:15.243Z,8.27
2023-05-13T09:03:58.033Z,7.37
2023-05-13T09:06:26.653Z,7.53
2023-05-13T09:08:56.182Z,8.10
2023-05-13T09:11:24.909Z,8.20
2023-05-13T09:14:02.866Z,9.82
2023-05-13T09:16:32.749Z,9.20
2023-05-13T09:19:02.013Z,9.02
2023-05-13T09:21:33.380Z,10.93
2023-05-13T09:24:11.597Z,8.67
2023-05-13T09:26:40.877Z,9.75
2023-05-13T09:29:29.590Z,8.65
2023-05-13T09:32:01.459Z,8.63
2023-05-13T09:34:32.371Z,9.20
2023-05-13T09:37:06.087Z,8.30
2023-05-13T09:39:41.360Z,8.00
2023-05-13T09:42:17.705Z,8.32
2023-05-13T09:44:48.027Z,7.80
2023-05-13T09:47:17.098Z,9.85
2023-05-13T09:49:47.172Z,7.75
2023-05-13T09:52:18.499Z,8.48
2023-05-13T09:54:46.944Z,9.43
2023-05-13T09:57:16.706Z,7.30
2023-05-13T09:59:46.504Z,7.05
2023-05-13T10:02:18.793Z,8.05
2023-05-13T10:04:47.543Z,6.70
2023-05-13T10:07:16.761Z,9.02
2023-05-13T10:09:47.318Z,6.68
2023-05-13T10:12:16.975Z,7.07
2023-05-13T10:14:47.355Z,8.65
2023-05-13T10:17:16.633Z,8.40
2023-05-13T10:19:45.561Z,6.13
2023-05-13T10:22:15.543Z,11.20
2023-05-13T10:24:44.445Z,7.85
2023-05-13T10:27:13.588Z,6.65
2023-05-13T10:29:46.596Z,7.97
2023-05-13T10:32:16.650Z,10.48
2023-05-13T10:34:46.621Z,6.70
2023-05-13T10:37:57.551Z,6.53
2023-05-13T10:40:58.220Z,7.10
2023-05-13T10:43:30.386Z,5.93
2023-05-13T10:46:05.536Z,6.95
2023-05-13T10:48:43.511Z,6.10
2023-05-13T10:51:16.258Z,6.03
2023-05-13T10:53:51.149Z,5.95
2023-05-13T10:56:26.188Z,8.38
2023-05-13T10:59:03.528Z,6.45
2023-05-13T11:01:39.624Z,7.47
2023-05-13T11:04:08.097Z,8.85
2023-05-13T11:06:38.098Z,5.38
2023-05-13T11:09:08.486Z,6.57
2023-05-13T11:11:37.357Z,8.52
2023-05-13T11:14:16.281Z,6.40
2023-05-13T11:17:09.871Z,6.53
2023-05-13T11:19:41.258Z,8.88
2023-05-13T11:22:12.827Z,4.97
2023-05-13T11:24:42.113Z,5.60
2023-05-13T11:27:18.183Z,5.57
2023-05-13T11:29:56.261Z,6.43
2023-05-13T11:33:00.220Z,4.40
2023-05-13T11:35:31.340Z,8.10
2023-05-13T11:38:01.601Z,4.35
2023-05-13T11:40:32.130Z,4.30
2023-05-13T11:43:02.350Z,4.20
2023-05-13T11:45:31.870Z,5.60
2023-05-13T11:48:21.051Z,6.55
2023-05-13T11:50:53.167Z,6.90
2023-05-13T11:53:24.725Z,3.85
2023-05-13T11:55:57.607Z,5.30
2023-05-13T11:58:27.612Z,5.57
2023-05-13T12:00:56.965Z,4.00
2023-05-13T12:03:30.835Z,4.88
2023-05-13T12:06:03.497Z,5.78
2023-05-13T12:08:32.295Z,4.25
2023-05-13T12:11:01.154Z,4.03
2023-05-13T12:13:29.593Z,4.88
2023-05-13T12:15:58.424Z,3.35
2023-05-13T12:18:28.525Z,9.18
2023-05-13T12:21:02.219Z,6.38
2023-05-13T12:23:40.810Z,4.10
2023-05-13T12:26:09.774Z,4.57
2023-05-13T12:28:38.634Z,4.38
2023-05-13T12:31:07.519Z,3.53
2023-05-13T12:33:47.001Z,4.80
2023-05-13T12:36:27.841Z,3.88
2023-05-13T12:39:00.454Z,3.85
2023-05-13T12:41:31.017Z,2.85
2023-05-13T12:44:01.531Z,4.63
2023-05-13T12:46:30.298Z,4.60
2023-05-13T12:49:02.021Z,3.13
2023-05-13T12:51:33.787Z,6.18
2023-05-13T12:54:02.300Z,3.65
2023-05-13T12:56:30.879Z,5.90
2023-05-13T12:58:59.443Z,4.53
2023-05-13T13:01:27.886Z,5.63
2023-05-13T13:03:56.806Z,4.07
2023-05-13T13:06:27.469Z,4.47
2023-05-13T13:08:56.257Z,5.32
2023-05-13T13:11:25.138Z,3.55
2023-05-13T13:13:54.110Z,3.83
2023-05-13T13:16:23.507Z,6.32
2023-05-13T13:18:53.308Z,4.95
2023-05-13T13:21:23.488Z,6.07
2023-05-13T13:23:53.338Z,3.80
2023-05-13T13:26:23.151Z,4.88
2023-05-13T13:28:51.773Z,3.03
2023-05-13T13:31:20.554Z,7.38
2023-05-13T13:33:49.294Z,3.72
2023-05-13T13:36:18.843Z,5.22
2023-05-13T13:38:47.549Z,4.90
2023-05-13T13:41:17.557Z,4.97
2023-05-13T13:43:45.875Z,6.25
2023-05-13T13:46:15.156Z,4.88
2023-05-13T13:48:43.454Z,8.85
2023-05-13T13:51:12.066Z,4.43
2023-05-13T13:53:40.755Z,4.43
2023-05-13T13:56:09.461Z,3.75
2023-05-13T13:58:40.528Z,4.00
2023-05-13T14:01:09.044Z,5.50
2023-05-13T14:03:37.882Z,4.57
2023-05-13T14:06:07.027Z,3.95
2023-05-13T14:08:35.411Z,6.55
2023-05-13T14:11:03.908Z,4.95
2023-05-13T14:13:32.500Z,4.15
2023-05-13T14:16:02.322Z,6.05
2023-05-13T14:18:31.443Z,5.03
2023-05-13T14:20:59.820Z,4.18
2023-05-13T14:23:34.156Z,4.55
2023-05-13T14:26:02.583Z,4.07
2023-05-13T14:28:31.033Z,4.90
2023-05-13T14:30:59.555Z,7.30
2023-05-13T14:33:29.409Z,4.38
2023-05-13T14:35:58.424Z,4.70
2023-05-13T14:38:27.717Z,4.00
2023-05-13T14:41:01.517Z,6.40
2023-05-13T14:43:29.878Z,3.83
2023-05-13T14:45:58.265Z,5.45
2023-05-13T14:48:28.408Z,3.65
2023-05-13T14:50:56.929Z,3.97
2023-05-13T14:53:26.809Z,3.05
2023-05-13T14:55:55.270Z,3.47
2023-05-13T14:58:23.834Z,3.72
2023-05-13T15:00:53.510Z,4.55
2023-05-13T15:03:23.692Z,3.30
2023-05-13T15:05:54.454Z,3.67
2023-05-13T15:08:27.461Z,3.50
2023-05-13T15:10:56.434Z,3.25
2023-05-13T15:13:27.250Z,3.38
2023-05-13T15:15:56.567Z,6.20
2023-05-13T15:18:25.978Z,3.15
2023-05-13T15:20:56.315Z,4.25
2023-05-13T15:23:25.589Z,4.55
2023-05-13T15:25:53.930Z,5.63
2023-05-13T15:28:22.719Z,4.28
2023-05-13T15:30:51.465Z,3.75
2023-05-13T15:33:23.605Z,3.75
2023-05-13T15:35:52.793Z,6.07
2023-05-13T15:38:23.134Z,5.95
2023-05-13T15:40:51.478Z,6.63
2023-05-13T15:43:20.803Z,5.80
2023-05-13T15:45:50.442Z,7.15
2023-05-13T15:48:19.432Z,5.32
2023-05-13T15:50:47.885Z,6.60
2023-05-13T15:53:16.284Z,5.57
2023-05-13T15:55:46.057Z,7.78
2023-05-13T15:58:14.317Z,5.70
2023-05-13T16:00:42.799Z,5.10
2023-05-13T16:03:11.201Z,7.47
2023-05-13T16:05:40.525Z,5.45
2023-05-13T16:08:08.972Z,7.38
2023-05-13T16:10:39.001Z,5.68
2023-05-13T16:13:19.583Z,5.50
2023-05-13T16:15:48.267Z,7.72
2023-05-13T16:18:18.683Z,9.25
2023-05-13T16:20:47.387Z,5.18
2023-05-13T16:23:15.775Z,5.80
2023-05-13T16:25:45.156Z,14.75
2023-05-13T16:28:23.176Z,13.85
2023-05-13T16:30:52.275Z,9.00
2023-05-13T16:33:22.189Z,5.70
2023-05-13T16:35:51.901Z,5.85
2023-05-13T16:38:20.480Z,6.35
2023-05-13T16:40:49.334Z,6.43
2023-05-13T16:43:19.272Z,8.45
2023-05-13T16:45:47.759Z,6.68
2023-05-13T16:48:17.134Z,4.63
2023-05-13T16:50:45.755Z,4.75
2023-05-13T16:53:14.062Z,4.60
2023-05-13T16:55:42.711Z,5.43
2023-05-13T16:58:11.224Z,8.18
2023-05-13T17:00:41.466Z,7.03
2023-05-13T17:03:10.053Z,5.93
2023-05-13T17:05:38.846Z,7.38
2023-05-13T17:08:08.074Z,7.43
2023-05-13T17:10:36.681Z,6.95
2023-05-13T17:13:05.550Z,7.88
2023-05-13T17:15:33.955Z,9.40
2023-05-13T17:18:03.848Z,7.60
2023-05-13T17:20:32.276Z,8.70
2023-05-13T17:23:01.532Z,7.97
2023-05-13T17:25:31.590Z,8.02
2023-05-13T17:28:03.227Z,8.82
2023-05-13T17:30:31.582Z,8.55
2023-05-13T17:32:59.923Z,9.05
2023-05-13T17:35:30.063Z,9.57
2023-05-13T17:37:58.496Z,9.05
2023-05-13T17:40:27.020Z,10.85
2023-05-13T17:42:56.355Z,9.20
2023-05-13T17:45:25.724Z,11.23
2023-05-13T17:47:54.396Z,8.82
2023-05-13T17:50:23.497Z,12.65
2023-05-13T17:52:53.533Z,8.93
2023-05-13T17:55:22.807Z,8.57
2023-05-13T17:57:52.351Z,8.93
2023-05-13T18:00:23.724Z,9.48
2023-05-13T18:02:52.801Z,9.23
2023-05-13T18:05:22.632Z,10.75
2023-05-13T18:07:52.940Z,9.38
2023-05-13T18:10:22.468Z,10.52
2023-05-13T18:12:53.342Z,8.98
2023-05-13T18:15:22.153Z,11.40
2023-05-13T18:17:52.011Z,9.15
2023-05-13T18:20:21.754Z,18.83
2023-05-13T18:22:53.253Z,9.68
2023-05-13T18:25:21.960Z,11.38
2023-05-13T18:27:51.375Z,9.88
2023-05-13T18:30:20.931Z,11.02
2023-05-13T18:32:51.287Z,9.95
2023-05-13T18:35:22.334Z,13.48
2023-05-13T18:37:52.793Z,11.13
2023-05-13T18:40:21.750Z,10.55
2023-05-13T18:42:50.958Z,9.55
2023-05-13T18:45:32.016Z,12.50
2023-05-13T18:48:00.552Z,12.00
2023-05-13T18:50:29.510Z,11.05
2023-05-13T18:52:59.537Z,12.10
2023-05-13T18:55:28.550Z,9.55
2023-05-13T18:57:59.520Z,9.88
2023-05-13T19:00:28.959Z,14.25
2023-05-13T19:03:00.860Z,11.37
2023-05-13T19:05:29.943Z,11.30
2023-05-13T19:08:00.685Z,12.60
2023-05-13T19:10:29.672Z,12.23
2023-05-13T19:12:58.731Z,11.87
2023-05-13T19:15:28.128Z,12.93
2023-05-13T19:17:57.166Z,11.97
2023-05-13T19:20:28.553Z,11.70
2023-05-13T19:22:57.325Z,9.77
2023-05-13T19:25:28.090Z,8.93
2023-05-13T19:27:57.092Z,8.93
2023-05-13T19:30:27.225Z,9.30
2023-05-13T19:32:55.846Z,8.03
2023-05-13T19:35:31.975Z,11.07
2023-05-13T19:38:04.047Z,8.37
2023-05-13T19:40:33.845Z,15.37
2023-05-13T19:43:02.564Z,13.10
2023-05-13T19:45:32.036Z,12.23
2023-05-13T19:48:01.252Z,14.73
2023-05-13T19:50:31.099Z,11.53
2023-05-13T19:53:00.494Z,10.77
2023-05-13T19:55:29.999Z,11.53
2023-05-13T19:58:00.985Z,13.60
2023-05-13T20:00:30.238Z,13.47
2023-05-13T20:02:59.582Z,13.67
2023-05-13T20:05:28.769Z,12.60
2023-05-13T20:07:58.118Z,13.47
2023-05-13T20:10:28.213Z,15.77
2023-05-13T20:12:57.202Z,16.07
2023-05-13T20:15:29.208Z,13.10
2023-05-13T20:17:58.980Z,17.20
2023-05-13T20:20:28.929Z,15.20
2023-05-13T20:22:58.298Z,16.40
2023-05-13T20:25:29.039Z,13.10
2023-05-13T20:27:58.399Z,15.23
2023-05-13T20:30:30.094Z,14.77
2023-05-13T20:32:59.197Z,15.40
2023-05-13T20:35:28.679Z,14.93
2023-05-13T20:37:59.273Z,12.53
2023-05-13T20:40:29.081Z,13.83
2023-05-13T20:43:01.499Z,15.03
2023-05-13T20:45:31.851Z,14.47
2023-05-13T20:48:01.640Z,15.50
2023-05-13T20:50:30.481Z,15.53
2023-05-13T20:53:00.214Z,15.00
2023-05-13T20:55:29.266Z,14.27
2023-05-13T20:57:58.336Z,11.90
2023-05-13T21:00:26.750Z,15.53
2023-05-13T21:02:57.700Z,22.30
2023-05-13T21:05:26.933Z,15.30
2023-05-13T21:07:55.580Z,15.67
2023-05-13T21:10:25.805Z,15.63
2023-05-13T21:12:54.689Z,17.13
2023-05-13T21:15:23.780Z,13.20
2023-05-13T21:17:53.169Z,17.43
2023-05-13T21:20:25.950Z,17.67
2023-05-13T21:22:54.357Z,13.50
2023-05-13T21:25:24.081Z,15.50
2023-05-13T21:27:53.351Z,20.70
2023-05-13T21:30:22.453Z,16.03
2023-05-13T21:32:52.067Z,14.07
2023-05-13T21:35:24.446Z,13.10
2023-05-13T21:37:56.176Z,16.60
2023-05-13T21:40:34.929Z,13.17
2023-05-13T21:43:03.395Z,14.57
2023-05-13T21:45:32.127Z,13.47
2023-05-13T21:48:00.708Z,12.43
2023-05-13T21:50:31.105Z,12.47
2023-05-13T21:52:59.748Z,18.57
2023-05-13T21:55:29.348Z,14.13
2023-05-13T21:57:58.549Z,15.23
2023-05-13T22:00:28.352Z,14.90
2023-05-13T22:03:00.513Z,14.90
2023-05-13T22:05:30.609Z,15.80
2023-05-13T22:08:00.208Z,18.63
2023-05-13T22:10:32.280Z,17.83
2023-05-13T22:13:00.593Z,16.37
2023-05-13T22:15:29.990Z,16.30
2023-05-13T22:17:58.591Z,21.83
2023-05-13T22:20:27.830Z,20.00
2023-05-13T22:22:58.027Z,15.63
2023-05-13T22:25:31.301Z,14.93
2023-05-13T22:27:59.872Z,17.27
2023-05-13T22:30:28.558Z,17.70
2023-05-13T22:32:57.162Z,19.07
2023-05-13T22:35:28.826Z,15.93
2023-05-13T22:37:59.194Z,16.23
2023-05-13T22:40:29.450Z,22.17
2023-05-13T22:42:58.921Z,17.00
2023-05-13T22:45:28.827Z,21.47
2023-05-13T22:47:58.088Z,16.37
2023-05-13T22:50:27.339Z,15.00
2023-05-13T22:52:57.823Z,17.43
2023-05-13T22:55:27.396Z,14.93
2023-05-13T22:57:55.860Z,16.33
2023-05-13T23:00:26.050Z,20.30
2023-05-13T23:02:54.900Z,18.60
2023-05-13T23:05:24.641Z,16.10
2023-05-13T23:07:53.852Z,17.93
2023-05-13T23:10:24.333Z,15.63
2023-05-13T23:12:53.342Z,18.17
2023-05-13T23:15:22.326Z,18.80
2023-05-13T23:17:50.748Z,18.83
2023-05-13T23:20:19.654Z,18.70
2023-05-13T23:22:49.020Z,20.70
2023-05-13T23:25:17.947Z,20.37
2023-05-13T23:27:47.949Z,19.07
2023-05-13T23:30:17.868Z,17.63
2023-05-13T23:32:46.620Z,16.60
2023-05-13T23:35:15.070Z,17.63
2023-05-13T23:37:43.872Z,16.80
2023-05-13T23:40:13.151Z,17.67
2023-05-13T23:42:43.047Z,16.43
2023-05-13T23:45:13.539Z,16.43
2023-05-13T23:47:43.124Z,17.40
2023-05-13T23:50:12.782Z,17.40
2023-05-13T23:52:41.174Z,17.53
2023-05-13T23:55:10.499Z,16.97
2023-05-13T23:57:38.866Z,18.27
